Whitecourt, Canada
Current Conditions -  °F | °C
As of 8:00 PM on Sunday 23 Nov 2014 (Local Time) from CYZU Reporting Station
Overcast Overcast  
Wind Chill: 19°   Ceiling: 4000
Heat Index: 19°   Visibility: 15mi
Dew Point: 18°   Wind: 3mph
Humidity: 93%   Direction: 310°NW
Pressure: 29.71"   Gusts: NA
Location:  54.13°N, 115.67°W
Report Text: CYZU 240300Z 31003KT 15SM OVC040 M07/M08 A2971 RMK SC8 SLP114
Loading
Personal Weather Stations






























Interactive Weather Map New forecast layout! Learn more

10-Day Weather Forecast

Advertisements
Track Severe Weather on mobile